createdAt,value
2022-12-09T00:01:18.195Z,6.23
2022-12-09T00:03:46.577Z,5.60
2022-12-09T00:06:17.931Z,6.43
2022-12-09T00:08:46.715Z,5.43
2022-12-09T00:11:14.847Z,5.67
2022-12-09T00:13:43.172Z,5.33
2022-12-09T00:16:13.532Z,5.03
2022-12-09T00:18:43.306Z,5.17
2022-12-09T00:21:16.867Z,5.07
2022-12-09T00:23:44.688Z,4.43
2022-12-09T00:26:13.478Z,5.20
2022-12-09T00:28:41.478Z,6.77
2022-12-09T00:31:11.252Z,7.07
2022-12-09T00:33:39.542Z,6.93
2022-12-09T00:36:11.699Z,6.50
2022-12-09T00:38:39.986Z,5.57
2022-12-09T00:41:08.142Z,6.40
2022-12-09T00:43:35.960Z,6.57
2022-12-09T00:46:04.056Z,5.73
2022-12-09T00:48:34.384Z,6.70
2022-12-09T00:51:02.978Z,6.40
2022-12-09T00:53:32.885Z,4.73
2022-12-09T00:56:00.823Z,5.97
2022-12-09T00:58:28.638Z,4.83
2022-12-09T01:00:56.756Z,4.53
2022-12-09T01:03:24.986Z,4.97
2022-12-09T01:05:53.008Z,5.07
2022-12-09T01:08:20.972Z,5.40
2022-12-09T01:10:50.372Z,5.07
2022-12-09T01:13:18.554Z,6.27
2022-12-09T01:15:46.366Z,5.47
2022-12-09T01:18:15.040Z,5.77
2022-12-09T01:20:42.931Z,5.30
2022-12-09T01:23:11.518Z,6.03
2022-12-09T01:25:39.970Z,4.47
2022-12-09T01:28:09.080Z,4.23
2022-12-09T01:30:37.136Z,3.87
2022-12-09T01:33:05.371Z,4.00
2022-12-09T01:35:33.355Z,4.67
2022-12-09T01:38:01.748Z,3.50
2022-12-09T01:40:29.861Z,3.80
2022-12-09T01:42:57.635Z,4.77
2022-12-09T01:46:02.453Z,6.50
2022-12-09T01:48:34.456Z,7.97
2022-12-09T01:51:04.309Z,8.33
2022-12-09T01:53:37.406Z,8.83
2022-12-09T01:56:10.221Z,8.80
2022-12-09T01:58:38.136Z,9.37
2022-12-09T02:01:07.121Z,8.10
2022-12-09T02:03:36.543Z,9.30
2022-12-09T02:06:05.086Z,9.37
2022-12-09T02:08:32.932Z,10.10
2022-12-09T02:11:09.031Z,8.43
2022-12-09T02:13:49.274Z,8.67
2022-12-09T02:16:21.491Z,9.17
2022-12-09T02:18:59.555Z,7.83
2022-12-09T02:21:36.030Z,8.43
2022-12-09T02:24:12.211Z,7.10
2022-12-09T02:26:45.165Z,6.63
2022-12-09T02:29:42.327Z,5.80
2022-12-09T02:32:37.150Z,5.40
2022-12-09T02:35:20.183Z,4.70
2022-12-09T02:37:55.385Z,3.90
2022-12-09T02:40:30.785Z,4.23
2022-12-09T02:43:00.827Z,3.53
2022-12-09T02:45:32.273Z,3.77
2022-12-09T02:48:05.219Z,3.53
2022-12-09T02:50:38.223Z,2.93
2022-12-09T02:53:10.481Z,3.17
2022-12-09T02:55:41.030Z,3.43
2022-12-09T02:58:09.329Z,2.77
2022-12-09T03:00:38.716Z,3.00
2022-12-09T03:03:09.673Z,2.90
2022-12-09T03:05:49.668Z,3.03
2022-12-09T03:08:27.799Z,2.67
2022-12-09T03:11:01.140Z,2.47
2022-12-09T03:13:42.326Z,2.97
2022-12-09T03:16:15.413Z,2.87
2022-12-09T03:18:49.987Z,2.33
2022-12-09T03:21:22.783Z,3.10
2022-12-09T03:23:55.554Z,3.23
2022-12-09T03:26:26.349Z,3.43
2022-12-09T03:28:56.303Z,2.73
2022-12-09T03:31:27.981Z,2.60
2022-12-09T03:34:02.891Z,2.83
2022-12-09T03:36:37.875Z,3.00
2022-12-09T03:39:09.161Z,2.73
2022-12-09T03:41:39.294Z,3.00
2022-12-09T03:44:12.611Z,3.03
2022-12-09T03:46:41.068Z,2.60
2022-12-09T03:49:09.394Z,2.73
2022-12-09T03:51:43.873Z,2.33
2022-12-09T03:54:18.284Z,2.63
2022-12-09T03:56:50.076Z,3.13
2022-12-09T03:59:18.655Z,5.63
2022-12-09T04:01:47.193Z,5.13
2022-12-09T04:04:15.187Z,4.83
2022-12-09T04:06:44.842Z,4.23
2022-12-09T04:09:13.957Z,3.80
2022-12-09T04:11:42.230Z,3.57
2022-12-09T04:14:15.341Z,3.50
2022-12-09T04:16:44.608Z,3.87
2022-12-09T04:19:12.957Z,3.30
2022-12-09T04:21:41.122Z,3.43
2022-12-09T04:24:10.875Z,4.00
2022-12-09T04:26:38.838Z,3.87
2022-12-09T04:29:06.971Z,3.33
2022-12-09T04:31:35.047Z,2.93
2022-12-09T04:34:09.010Z,3.80
2022-12-09T04:36:38.596Z,3.33
2022-12-09T04:39:06.990Z,3.40
2022-12-09T04:41:36.791Z,3.27
2022-12-09T04:44:05.728Z,3.60
2022-12-09T04:46:34.193Z,2.50
2022-12-09T04:49:02.051Z,2.80
2022-12-09T04:51:35.820Z,3.83
2022-12-09T04:54:07.113Z,2.60
2022-12-09T04:56:36.495Z,2.67
2022-12-09T04:59:05.545Z,2.97
2022-12-09T05:01:33.822Z,2.47
2022-12-09T05:04:02.102Z,3.57
2022-12-09T05:06:30.409Z,3.87
2022-12-09T05:08:59.071Z,3.47
2022-12-09T05:11:27.572Z,3.03
2022-12-09T05:13:57.251Z,2.40
2022-12-09T05:16:25.103Z,2.67
2022-12-09T05:18:53.354Z,3.73
2022-12-09T05:21:23.053Z,2.43
2022-12-09T05:23:51.126Z,2.70
2022-12-09T05:26:21.533Z,1.93
2022-12-09T05:28:50.030Z,2.43
2022-12-09T05:31:21.129Z,2.47
2022-12-09T05:33:50.440Z,2.30
2022-12-09T05:36:20.915Z,2.60
2022-12-09T05:38:49.683Z,2.93
2022-12-09T05:41:18.409Z,2.80
2022-12-09T05:43:46.531Z,4.10
2022-12-09T05:46:16.692Z,3.97
2022-12-09T05:48:46.735Z,3.90
2022-12-09T05:51:18.028Z,3.37
2022-12-09T05:53:46.340Z,2.43
2022-12-09T05:56:16.948Z,3.40
2022-12-09T05:58:45.022Z,3.10
2022-12-09T06:01:13.686Z,2.83
2022-12-09T06:03:42.208Z,4.10
2022-12-09T06:06:14.255Z,4.57
2022-12-09T06:08:43.873Z,5.90
2022-12-09T06:11:14.465Z,6.23
2022-12-09T06:13:42.999Z,5.70
2022-12-09T06:16:12.216Z,5.27
2022-12-09T06:18:40.247Z,5.33
2022-12-09T06:21:09.277Z,5.80
2022-12-09T06:23:41.408Z,5.20
2022-12-09T06:26:19.031Z,4.50
2022-12-09T06:28:46.982Z,4.30
2022-12-09T06:31:15.567Z,5.03
2022-12-09T06:34:00.036Z,4.90
2022-12-09T06:36:30.274Z,4.20
2022-12-09T06:39:06.069Z,5.10
2022-12-09T06:41:36.023Z,4.63
2022-12-09T06:44:04.776Z,4.40
2022-12-09T06:46:32.907Z,4.57
2022-12-09T06:49:03.693Z,4.90
2022-12-09T06:51:31.994Z,5.53
2022-12-09T06:54:01.599Z,4.57
2022-12-09T06:56:29.564Z,5.73
2022-12-09T06:58:57.582Z,4.60
2022-12-09T07:01:26.771Z,4.63
2022-12-09T07:03:56.915Z,4.40
2022-12-09T07:06:28.806Z,5.03
2022-12-09T07:08:58.947Z,4.77
2022-12-09T07:11:29.206Z,5.80
2022-12-09T07:13:57.586Z,5.17
2022-12-09T07:16:25.925Z,5.80
2022-12-09T07:18:54.042Z,4.57
2022-12-09T07:21:23.490Z,4.87
2022-12-09T07:23:51.885Z,4.90
2022-12-09T07:26:20.712Z,3.73
2022-12-09T07:28:50.492Z,5.27
2022-12-09T07:31:21.406Z,5.10
2022-12-09T07:33:49.995Z,3.80
2022-12-09T07:36:21.263Z,3.63
2022-12-09T07:38:50.325Z,3.47
2022-12-09T07:41:19.434Z,3.87
2022-12-09T07:43:48.354Z,3.03
2022-12-09T07:46:20.042Z,5.57
2022-12-09T07:48:49.349Z,3.93
2022-12-09T07:51:17.814Z,4.33
2022-12-09T07:53:46.810Z,4.13
2022-12-09T07:56:16.911Z,5.13
2022-12-09T07:58:47.676Z,5.73
2022-12-09T08:01:18.858Z,5.70
2022-12-09T08:03:47.771Z,6.07
2022-12-09T08:06:18.292Z,4.77
2022-12-09T08:08:47.324Z,4.80
2022-12-09T08:11:18.366Z,10.97
2022-12-09T08:13:46.909Z,14.67
2022-12-09T08:16:19.551Z,14.13
2022-12-09T08:18:48.797Z,11.97
2022-12-09T08:21:19.870Z,13.10
2022-12-09T08:23:48.668Z,12.47
2022-12-09T08:26:19.358Z,11.13
2022-12-09T08:28:47.726Z,12.73
2022-12-09T08:31:19.699Z,13.00
2022-12-09T08:33:48.194Z,12.33
2022-12-09T08:36:17.989Z,15.70
2022-12-09T08:38:46.220Z,16.13
2022-12-09T08:41:16.857Z,12.67
2022-12-09T08:43:45.727Z,13.50
2022-12-09T08:46:14.568Z,12.80
2022-12-09T08:48:44.618Z,14.60
2022-12-09T08:51:13.208Z,12.30
2022-12-09T08:53:42.115Z,14.90
2022-12-09T08:56:12.923Z,16.30
2022-12-09T08:58:42.407Z,15.67
2022-12-09T09:01:16.441Z,19.47
2022-12-09T09:03:46.226Z,17.53
2022-12-09T09:06:16.207Z,16.43
2022-12-09T09:08:44.446Z,18.87
2022-12-09T09:11:14.631Z,16.10
2022-12-09T09:13:45.046Z,15.60
2022-12-09T09:16:17.419Z,17.00
2022-12-09T09:18:47.440Z,17.00
2022-12-09T09:21:17.584Z,15.90
2022-12-09T09:23:45.577Z,14.30
2022-12-09T09:26:15.900Z,14.70
2022-12-09T09:28:44.565Z,17.63
2022-12-09T09:31:15.933Z,17.10
2022-12-09T09:33:44.539Z,17.30
2022-12-09T09:36:16.307Z,17.93
2022-12-09T09:38:44.622Z,19.97
2022-12-09T09:41:27.008Z,19.27
2022-12-09T09:43:56.446Z,21.70
2022-12-09T09:46:35.877Z,25.43
2022-12-09T09:49:06.801Z,25.20
2022-12-09T09:51:36.612Z,25.10
2022-12-09T09:54:08.917Z,23.03
2022-12-09T09:56:41.084Z,25.53
2022-12-09T09:59:20.440Z,25.40
2022-12-09T10:02:01.558Z,28.47
2022-12-09T10:04:39.366Z,31.27
2022-12-09T10:07:19.019Z,28.53
2022-12-09T10:10:04.311Z,24.63
2022-12-09T10:12:41.680Z,23.43
2022-12-09T10:15:14.214Z,28.17
2022-12-09T10:17:50.199Z,26.80
2022-12-09T10:20:21.316Z,24.73
2022-12-09T10:22:55.014Z,24.27
2022-12-09T10:25:25.897Z,20.97
2022-12-09T10:28:01.004Z,19.13
2022-12-09T10:30:36.224Z,18.80
2022-12-09T10:33:08.114Z,18.50
2022-12-09T10:35:36.485Z,20.13
2022-12-09T10:38:10.413Z,21.47
2022-12-09T10:40:53.085Z,21.73
2022-12-09T10:43:38.882Z,21.03
2022-12-09T10:46:19.248Z,19.27
2022-12-09T10:48:54.055Z,17.37
2022-12-09T10:51:26.232Z,20.17
2022-12-09T10:53:59.054Z,18.43
2022-12-09T10:56:29.796Z,17.00
2022-12-09T10:59:11.460Z,18.03
2022-12-09T11:01:50.831Z,14.37
2022-12-09T11:04:24.172Z,12.73
2022-12-09T11:06:59.121Z,12.07
2022-12-09T11:09:33.622Z,10.30
2022-12-09T11:12:02.449Z,9.60
2022-12-09T11:14:35.880Z,8.07
2022-12-09T11:17:15.756Z,7.00
2022-12-09T11:19:45.445Z,6.37
2022-12-09T11:22:33.571Z,6.33
2022-12-09T11:25:23.728Z,7.43
2022-12-09T11:27:54.583Z,7.70
2022-12-09T11:30:25.303Z,8.00
2022-12-09T11:32:59.784Z,7.43
2022-12-09T11:35:32.284Z,6.73
2022-12-09T11:38:04.329Z,7.03
2022-12-09T11:40:33.962Z,8.17
2022-12-09T11:43:01.909Z,8.13
2022-12-09T11:45:34.290Z,7.17
2022-12-09T11:48:27.623Z,7.33
2022-12-09T11:50:56.828Z,6.93
2022-12-09T11:53:28.320Z,8.70
2022-12-09T11:56:02.754Z,7.87
2022-12-09T11:58:39.895Z,9.07
2022-12-09T12:01:13.084Z,7.00
2022-12-09T12:03:47.275Z,8.63
2022-12-09T12:06:21.084Z,7.97
2022-12-09T12:08:52.072Z,10.93
2022-12-09T12:11:28.020Z,8.90
2022-12-09T12:14:02.323Z,8.90
2022-12-09T12:16:39.492Z,7.63
2022-12-09T12:19:14.901Z,9.37
2022-12-09T12:22:07.399Z,9.00
2022-12-09T12:25:07.218Z,9.00
2022-12-09T12:27:51.057Z,9.90
2022-12-09T12:30:21.652Z,8.57
2022-12-09T12:33:53.014Z,8.70
2022-12-09T12:36:01.353Z,8.87
2022-12-09T12:38:45.132Z,8.73
2022-12-09T12:41:18.170Z,9.20
2022-12-09T12:44:21.082Z,8.63
2022-12-09T12:47:01.297Z,8.20
2022-12-09T12:49:46.159Z,7.20
2022-12-09T12:52:54.136Z,9.20
2022-12-09T12:55:22.223Z,10.20
2022-12-09T12:57:57.252Z,9.40
2022-12-09T13:00:31.657Z,10.33
2022-12-09T13:03:10.462Z,10.67
2022-12-09T13:05:43.135Z,10.67
2022-12-09T13:08:16.857Z,8.27
2022-12-09T13:10:48.200Z,8.47
2022-12-09T13:13:19.945Z,9.47
2022-12-09T13:15:52.639Z,8.83
2022-12-09T13:18:26.596Z,8.13
2022-12-09T13:20:56.058Z,8.17
2022-12-09T13:23:34.646Z,9.77
2022-12-09T13:26:14.239Z,6.70
2022-12-09T13:28:52.577Z,7.40
2022-12-09T13:31:29.453Z,6.20
2022-12-09T13:34:09.359Z,6.97
2022-12-09T13:36:42.136Z,7.87
2022-12-09T13:39:12.763Z,7.00
2022-12-09T13:42:00.962Z,6.23
2022-12-09T13:44:33.531Z,7.40
2022-12-09T13:47:25.816Z,6.80
2022-12-09T13:49:58.968Z,8.83
2022-12-09T13:52:45.750Z,7.13
2022-12-09T13:55:40.636Z,6.23
2022-12-09T13:58:31.191Z,7.17
2022-12-09T14:01:07.904Z,8.07
2022-12-09T14:03:47.122Z,5.90
2022-12-09T14:06:22.760Z,6.67
2022-12-09T14:08:55.085Z,7.07
2022-12-09T14:11:43.292Z,6.97
2022-12-09T14:14:47.867Z,8.00
2022-12-09T14:18:00.943Z,7.47
2022-12-09T14:20:36.878Z,6.63
2022-12-09T14:23:18.447Z,7.10
2022-12-09T14:26:05.119Z,7.23
2022-12-09T14:29:00.014Z,7.37
2022-12-09T14:31:50.153Z,6.67
2022-12-09T14:34:26.840Z,7.07
2022-12-09T14:37:06.416Z,6.53
2022-12-09T14:39:45.004Z,5.97
2022-12-09T14:42:25.357Z,6.30
2022-12-09T14:45:02.480Z,5.20
2022-12-09T14:47:33.450Z,6.20
2022-12-09T14:50:09.762Z,8.17
2022-12-09T14:52:39.052Z,7.07
2022-12-09T14:55:10.049Z,6.77
2022-12-09T14:57:41.626Z,8.07
2022-12-09T15:00:28.411Z,7.83
2022-12-09T15:03:30.507Z,7.53
2022-12-09T15:05:55.219Z,9.67
2022-12-09T15:08:33.224Z,8.43
2022-12-09T15:11:02.854Z,10.20
2022-12-09T15:13:34.528Z,10.17
2022-12-09T15:16:02.662Z,8.60
2022-12-09T15:18:31.307Z,8.70
2022-12-09T15:21:01.331Z,7.50
2022-12-09T15:23:34.538Z,7.33
2022-12-09T15:26:05.252Z,7.17
2022-12-09T15:28:35.752Z,7.33
2022-12-09T15:31:06.191Z,7.47
2022-12-09T15:33:40.823Z,7.47
2022-12-09T15:36:12.213Z,7.07
2022-12-09T15:38:45.245Z,6.67
2022-12-09T15:41:30.544Z,7.10
2022-12-09T15:44:02.427Z,6.33
2022-12-09T15:46:33.141Z,6.77
2022-12-09T15:49:03.382Z,5.90
2022-12-09T15:51:32.647Z,6.57
2022-12-09T15:54:05.208Z,6.43
2022-12-09T15:56:38.413Z,6.97
2022-12-09T15:59:10.328Z,6.83
2022-12-09T16:01:38.323Z,6.60
2022-12-09T16:04:07.651Z,6.03
2022-12-09T16:06:38.529Z,6.30
2022-12-09T16:09:14.688Z,5.27
2022-12-09T16:11:45.499Z,4.53
2022-12-09T16:14:14.416Z,5.53
2022-12-09T16:16:47.442Z,5.63
2022-12-09T16:19:32.820Z,5.70
2022-12-09T16:22:03.157Z,5.30
2022-12-09T16:24:57.869Z,5.17
2022-12-09T16:27:25.457Z,5.13
2022-12-09T16:29:56.168Z,5.17
2022-12-09T16:32:26.096Z,5.13
2022-12-09T16:34:56.159Z,6.10
2022-12-09T16:37:30.171Z,4.77
2022-12-09T16:40:00.419Z,4.60
2022-12-09T16:42:30.630Z,4.40
2022-12-09T16:45:25.434Z,4.93
2022-12-09T16:47:54.821Z,4.63
2022-12-09T16:50:24.359Z,4.83
2022-12-09T16:52:52.212Z,4.87
2022-12-09T16:55:24.835Z,4.70
2022-12-09T16:57:53.784Z,4.70
2022-12-09T17:00:22.391Z,4.57
2022-12-09T17:02:53.508Z,4.67
2022-12-09T17:05:21.299Z,6.57
2022-12-09T17:07:49.206Z,6.63
2022-12-09T17:10:17.879Z,5.80
2022-12-09T17:12:47.535Z,7.10
2022-12-09T17:15:17.071Z,6.03
2022-12-09T17:17:48.679Z,7.77
2022-12-09T17:20:17.248Z,7.70
2022-12-09T17:22:45.361Z,6.57
2022-12-09T17:25:13.134Z,6.93
2022-12-09T17:27:40.894Z,6.73
2022-12-09T17:30:11.335Z,6.77
2022-12-09T17:32:39.085Z,7.23
2022-12-09T17:35:12.383Z,6.80
2022-12-09T17:37:40.889Z,7.00
2022-12-09T17:40:09.859Z,6.33
2022-12-09T17:42:37.897Z,6.03
2022-12-09T17:45:06.876Z,5.67
2022-12-09T17:47:36.349Z,6.97
2022-12-09T17:50:04.611Z,7.20
2022-12-09T17:52:32.517Z,7.17
2022-12-09T17:55:01.220Z,7.57
2022-12-09T17:57:29.087Z,7.27
2022-12-09T17:59:56.875Z,7.60
2022-12-09T18:02:24.647Z,7.57
2022-12-09T18:04:53.876Z,8.33
2022-12-09T18:07:21.645Z,8.07
2022-12-09T18:09:54.334Z,7.37
2022-12-09T18:12:22.657Z,9.10
2022-12-09T18:14:50.631Z,7.67
2022-12-09T18:17:18.397Z,6.80
2022-12-09T18:19:46.357Z,7.37
2022-12-09T18:22:15.503Z,8.37
2022-12-09T18:24:43.280Z,6.93
2022-12-09T18:27:11.223Z,8.87
2022-12-09T18:29:41.491Z,8.20
2022-12-09T18:32:09.737Z,8.20
2022-12-09T18:34:37.664Z,10.10
2022-12-09T18:37:05.666Z,7.67
2022-12-09T18:39:34.883Z,8.40
2022-12-09T18:42:03.280Z,8.33
2022-12-09T18:44:31.076Z,7.47
2022-12-09T18:46:58.803Z,8.13
2022-12-09T18:49:28.426Z,7.27
2022-12-09T18:51:56.591Z,7.77
2022-12-09T18:54:27.513Z,7.40
2022-12-09T18:56:57.254Z,7.53
2022-12-09T18:59:26.095Z,7.80
2022-12-09T19:01:54.415Z,7.93
2022-12-09T19:04:24.323Z,7.73
2022-12-09T19:06:53.844Z,5.90
2022-12-09T19:09:24.130Z,7.13
2022-12-09T19:11:53.367Z,7.00
2022-12-09T19:14:24.181Z,7.47
2022-12-09T19:16:52.613Z,6.33
2022-12-09T19:19:21.892Z,6.93
2022-12-09T19:21:50.396Z,6.30
2022-12-09T19:24:20.343Z,6.17
2022-12-09T19:26:48.500Z,8.83
2022-12-09T19:29:17.745Z,7.80
2022-12-09T19:31:48.355Z,7.07
2022-12-09T19:34:18.430Z,8.83
2022-12-09T19:36:47.707Z,8.43
2022-12-09T19:39:16.506Z,8.63
2022-12-09T19:41:45.395Z,6.83
2022-12-09T19:44:21.504Z,7.90
2022-12-09T19:47:00.599Z,8.20
2022-12-09T19:49:28.664Z,8.87
2022-12-09T19:51:58.207Z,9.60
2022-12-09T19:54:28.730Z,8.03
2022-12-09T19:56:57.274Z,11.13
2022-12-09T19:59:25.289Z,13.13
2022-12-09T20:01:53.252Z,10.73
2022-12-09T20:07:12.363Z,11.90
2022-12-09T20:09:40.125Z,12.87
2022-12-09T20:12:07.889Z,12.53
2022-12-09T20:14:35.957Z,12.27
2022-12-09T20:17:03.834Z,10.67
2022-12-09T20:19:33.203Z,11.53
2022-12-09T20:22:00.980Z,9.43
2022-12-09T20:24:30.320Z,11.07
2022-12-09T20:26:58.097Z,10.13
2022-12-09T20:29:25.900Z,10.47
2022-12-09T20:31:54.014Z,11.17
2022-12-09T20:34:21.878Z,13.33
2022-12-09T20:36:51.416Z,10.50
2022-12-09T20:39:21.244Z,9.93
2022-12-09T20:41:49.616Z,10.03
2022-12-09T20:44:19.947Z,10.90
2022-12-09T20:46:51.439Z,10.83
2022-12-09T20:49:20.398Z,9.60
2022-12-09T20:51:49.140Z,10.93
2022-12-09T20:54:18.386Z,10.00
2022-12-09T20:56:46.321Z,10.33
2022-12-09T20:59:14.510Z,11.57
2022-12-09T21:01:43.522Z,10.20
2022-12-09T21:04:11.339Z,10.90
2022-12-09T21:06:40.808Z,9.77
2022-12-09T21:09:10.775Z,10.10
2022-12-09T21:11:40.097Z,10.13
2022-12-09T21:14:08.372Z,11.63
2022-12-09T21:16:38.924Z,12.13
2022-12-09T21:19:10.374Z,13.33
2022-12-09T21:21:40.224Z,12.70
2022-12-09T21:24:10.312Z,13.23
2022-12-09T21:26:39.469Z,11.13
2022-12-09T21:29:08.392Z,12.50
2022-12-09T21:31:37.521Z,12.00
2022-12-09T21:34:07.504Z,12.23
2022-12-09T21:36:37.379Z,10.23
2022-12-09T21:39:06.491Z,11.60
2022-12-09T21:41:36.795Z,12.37
2022-12-09T21:44:07.271Z,10.53
2022-12-09T21:46:36.811Z,9.20
2022-12-09T21:49:06.356Z,11.37
2022-12-09T21:51:35.137Z,11.17
2022-12-09T21:54:03.484Z,10.97
2022-12-09T21:56:32.799Z,10.80
2022-12-09T21:59:01.437Z,9.57
2022-12-09T22:01:32.262Z,11.17
2022-12-09T22:04:02.583Z,11.47
2022-12-09T22:06:31.039Z,11.87
2022-12-09T22:08:59.782Z,12.47
2022-12-09T22:11:30.601Z,12.13
2022-12-09T22:14:00.597Z,12.60
2022-12-09T22:16:32.708Z,14.43
2022-12-09T22:19:01.795Z,14.30
2022-12-09T22:21:32.099Z,14.60
2022-12-09T22:24:02.833Z,17.00
2022-12-09T22:26:31.271Z,20.37
2022-12-09T22:29:00.742Z,17.87
2022-12-09T22:31:31.918Z,18.37
2022-12-09T22:34:05.233Z,18.20
2022-12-09T22:36:34.595Z,16.87
2022-12-09T22:39:02.350Z,13.87
2022-12-09T22:41:30.733Z,16.13
2022-12-09T22:43:58.695Z,17.43
2022-12-09T22:46:28.728Z,15.20
2022-12-09T22:48:58.995Z,12.87
2022-12-09T22:51:29.215Z,15.00
2022-12-09T22:53:58.558Z,13.43
2022-12-09T22:56:26.931Z,14.10
2022-12-09T22:58:54.804Z,12.47
2022-12-09T23:01:25.623Z,13.57
2022-12-09T23:03:55.132Z,13.80
2022-12-09T23:06:24.412Z,12.70
2022-12-09T23:08:52.193Z,10.07
2022-12-09T23:11:22.494Z,11.00
2022-12-09T23:13:50.285Z,9.83
2022-12-09T23:16:20.861Z,10.50
2022-12-09T23:18:49.059Z,11.27
2022-12-09T23:21:23.437Z,10.07
2022-12-09T23:23:54.933Z,10.93
2022-12-09T23:26:25.609Z,9.83
2022-12-09T23:28:57.215Z,10.03
2022-12-09T23:31:27.578Z,9.60
2022-12-09T23:33:56.720Z,8.23
2022-12-09T23:36:27.147Z,9.27
2022-12-09T23:38:56.306Z,9.23
2022-12-09T23:41:25.380Z,10.63
2022-12-09T23:43:54.051Z,9.80
2022-12-09T23:46:24.630Z,10.10
2022-12-09T23:48:53.617Z,10.10
2022-12-09T23:51:23.033Z,9.27
2022-12-09T23:53:52.366Z,8.90
2022-12-09T23:56:24.060Z,8.87
2022-12-09T23:58:55.217Z,10.77
